NASA902 KEFD-KEFD
Flight info
| Callsign | NASA902 |
|---|---|
| Flight time | 1h 12m |
| Altitude | 2000 |
| Route | KARRR7 WWREN W-147 PSX TSHRT2 KEFD/17R |
| Aircraft | T38/L-SGY/S |
Departure
| Time | 2026-05-04 16:56 |
|---|---|
| Airport | Ellington Airport (KEFD) |
Arrival
| Time | 2026-05-04 18:08 |
|---|---|
| Airport | Ellington Airport (KEFD) |
| Time | Latitude | Longitude | Altitude | Speed | Heading |
|---|---|---|---|---|---|
| 2026-05-04 16:24 | 29.59684 | -95.16704 | 36 ft | 0 kts | 0° |
| 2026-05-04 16:49 | 29.59694 | -95.16703 | 36 ft | 2 kts | 18° |
| 2026-05-04 16:50 | 29.59714 | -95.16630 | 37 ft | 7 kts | 25° |
| 2026-05-04 16:50 | 29.59854 | -95.16629 | 37 ft | 13 kts | 2° |
| 2026-05-04 16:51 | 29.60044 | -95.16627 | 38 ft | 29 kts | 356° |
| 2026-05-04 16:51 | 29.60235 | -95.16637 | 39 ft | 26 kts | 358° |
| 2026-05-04 16:51 | 29.60607 | -95.16645 | 38 ft | 26 kts | 358° |
| 2026-05-04 16:52 | 29.60916 | -95.16650 | 35 ft | 22 kts | 358° |
| 2026-05-04 16:52 | 29.61081 | -95.16655 | 36 ft | 25 kts | 358° |
| 2026-05-04 16:53 | 29.61442 | -95.16663 | 37 ft | 26 kts | 356° |
| 2026-05-04 16:53 | 29.61750 | -95.16570 | 37 ft | 4 kts | 45° |
| 2026-05-04 16:54 | 29.61762 | -95.16556 | 37 ft | 0 kts | 45° |
| 2026-05-04 16:55 | 29.61783 | -95.16428 | 35 ft | 9 kts | 179° |
| 2026-05-04 16:55 | 29.61753 | -95.16427 | 35 ft | 0 kts | 179° |
| 2026-05-04 16:56 | 29.60844 | -95.16407 | 43 ft | 147 kts | 179° |
| 2026-05-04 16:56 | 29.57580 | -95.18591 | 2535 ft | 261 kts | 239° |
| 2026-05-04 16:57 | 29.56392 | -95.20270 | 3744 ft | 284 kts | 221° |
| 2026-05-04 16:57 | 29.53248 | -95.23500 | 6425 ft | 312 kts | 217° |
| 2026-05-04 16:58 | 29.48154 | -95.28056 | 10328 ft | 289 kts | 224° |
| 2026-05-04 16:58 | 29.46684 | -95.29505 | 11510 ft | 269 kts | 226° |
| 2026-05-04 16:59 | 29.43837 | -95.31952 | 13531 ft | 240 kts | 225° |
| 2026-05-04 17:00 | 29.37907 | -95.37442 | 15032 ft | 328 kts | 226° |
| 2026-05-04 17:00 | 29.32635 | -95.43118 | 17062 ft | 336 kts | 229° |
| 2026-05-04 17:01 | 29.29207 | -95.46552 | 19698 ft | 333 kts | 216° |
| 2026-05-04 17:01 | 29.24676 | -95.48372 | 21430 ft | 356 kts | 206° |
| 2026-05-04 17:02 | 29.19873 | -95.50227 | 22925 ft | 370 kts | 208° |
| 2026-05-04 17:02 | 29.14951 | -95.52176 | 24479 ft | 375 kts | 209° |
| 2026-05-04 17:03 | 29.12512 | -95.53184 | 25111 ft | 378 kts | 211° |
| 2026-05-04 17:03 | 29.10024 | -95.54227 | 25738 ft | 383 kts | 207° |
| 2026-05-04 17:03 | 29.04963 | -95.56016 | 27232 ft | 377 kts | 212° |
| 2026-05-04 17:04 | 29.00093 | -95.58073 | 28016 ft | 393 kts | 211° |
| 2026-05-04 17:04 | 28.94814 | -95.60253 | 28647 ft | 412 kts | 212° |
| 2026-05-04 17:05 | 28.89540 | -95.62719 | 29851 ft | 398 kts | 220° |
| 2026-05-04 17:05 | 28.84577 | -95.65901 | 30203 ft | 422 kts | 220° |
| 2026-05-04 17:06 | 28.79313 | -95.69432 | 30017 ft | 456 kts | 219° |
| 2026-05-04 17:06 | 28.76526 | -95.71260 | 30014 ft | 468 kts | 219° |
| 2026-05-04 17:07 | 28.70746 | -95.75090 | 30094 ft | 492 kts | 219° |
| 2026-05-04 17:07 | 28.69788 | -95.75744 | 30149 ft | 494 kts | 219° |
| 2026-05-04 17:07 | 28.64886 | -95.79031 | 30646 ft | 495 kts | 218° |
| 2026-05-04 17:07 | 28.61822 | -95.80959 | 30600 ft | 509 kts | 217° |
| 2026-05-04 17:08 | 28.58687 | -95.82939 | 30513 ft | 520 kts | 216° |
| 2026-05-04 17:08 | 28.52225 | -95.87016 | 30242 ft | 538 kts | 218° |
| 2026-05-04 17:09 | 28.45621 | -95.91221 | 30187 ft | 556 kts | 216° |
| 2026-05-04 17:09 | 28.40015 | -95.94833 | 30062 ft | 568 kts | 217° |
| 2026-05-04 17:10 | 28.33143 | -95.99385 | 30207 ft | 565 kts | 218° |
| 2026-05-04 17:10 | 28.22641 | -96.04317 | 30382 ft | 574 kts | 183° |
| 2026-05-04 17:11 | 28.14702 | -96.03878 | 30302 ft | 567 kts | 184° |
| 2026-05-04 17:12 | 28.02985 | -96.03586 | 30477 ft | 551 kts | 185° |
| 2026-05-04 17:13 | 27.84328 | -96.02857 | 31770 ft | 518 kts | 181° |
| 2026-05-04 17:14 | 27.79190 | -95.93562 | 31573 ft | 529 kts | 83° |
| 2026-05-04 17:14 | 27.79330 | -95.89402 | 31750 ft | 527 kts | 84° |
| 2026-05-04 17:14 | 27.79551 | -95.81132 | 31926 ft | 529 kts | 83° |
| 2026-05-04 17:15 | 27.79675 | -95.76970 | 30898 ft | 533 kts | 83° |
| 2026-05-04 17:15 | 27.80044 | -95.68321 | 26327 ft | 565 kts | 83° |
| 2026-05-04 17:16 | 27.80618 | -95.59385 | 22618 ft | 566 kts | 82° |
| 2026-05-04 17:16 | 27.81539 | -95.46480 | 18485 ft | 534 kts | 82° |
| 2026-05-04 17:17 | 27.81823 | -95.42458 | 18353 ft | 498 kts | 82° |
| 2026-05-04 17:17 | 27.82583 | -95.31611 | 18270 ft | 431 kts | 81° |
| 2026-05-04 17:18 | 27.82845 | -95.28287 | 18254 ft | 417 kts | 81° |
| 2026-05-04 17:18 | 27.83375 | -95.21633 | 18178 ft | 440 kts | 81° |
| 2026-05-04 17:19 | 27.84473 | -95.14940 | 18302 ft | 420 kts | 48° |
| 2026-05-04 17:19 | 27.89022 | -95.14077 | 18225 ft | 352 kts | 311° |
| 2026-05-04 17:20 | 27.89692 | -95.19349 | 18262 ft | 364 kts | 263° |
| 2026-05-04 17:20 | 27.88706 | -95.24811 | 18711 ft | 351 kts | 262° |
| 2026-05-04 17:20 | 27.88185 | -95.27551 | 18518 ft | 359 kts | 262° |
| 2026-05-04 17:21 | 27.87843 | -95.33081 | 18470 ft | 353 kts | 296° |
| 2026-05-04 17:21 | 27.92141 | -95.34780 | 18228 ft | 385 kts | 21° |
| 2026-05-04 17:22 | 27.94190 | -95.32759 | 18244 ft | 405 kts | 51° |
| 2026-05-04 17:22 | 27.95170 | -95.29738 | 18244 ft | 419 kts | 80° |
| 2026-05-04 17:23 | 27.95413 | -95.19034 | 18182 ft | 496 kts | 87° |
| 2026-05-04 17:23 | 27.95516 | -95.15171 | 18192 ft | 475 kts | 83° |
| 2026-05-04 17:23 | 27.96223 | -95.08120 | 17993 ft | 434 kts | 77° |
| 2026-05-04 17:24 | 27.96721 | -95.04709 | 17912 ft | 445 kts | 77° |
| 2026-05-04 17:24 | 27.96031 | -94.94144 | 18625 ft | 468 kts | 136° |
| 2026-05-04 17:25 | 27.93403 | -94.92343 | 18613 ft | 423 kts | 174° |
| 2026-05-04 17:25 | 27.88836 | -94.94580 | 17826 ft | 365 kts | 257° |
| 2026-05-04 17:26 | 27.91227 | -94.98074 | 17596 ft | 395 kts | 1° |
| 2026-05-04 17:26 | 27.96738 | -95.04638 | 17733 ft | 461 kts | 281° |
| 2026-05-04 17:27 | 27.98236 | -95.12104 | 18217 ft | 504 kts | 292° |
| 2026-05-04 17:27 | 27.99244 | -95.19182 | 17864 ft | 401 kts | 271° |
| 2026-05-04 17:28 | 27.99170 | -95.24999 | 18009 ft | 369 kts | 272° |
| 2026-05-04 17:29 | 27.99099 | -95.33842 | 18036 ft | 369 kts | 272° |
| 2026-05-04 17:29 | 27.99083 | -95.42645 | 18311 ft | 367 kts | 273° |
| 2026-05-04 17:30 | 28.02565 | -95.44154 | 18409 ft | 409 kts | 92° |
| 2026-05-04 17:31 | 28.01036 | -95.37837 | 17965 ft | 445 kts | 115° |
| 2026-05-04 17:31 | 27.99017 | -95.27889 | 18464 ft | 362 kts | 99° |
| 2026-05-04 17:32 | 27.98144 | -95.21751 | 18212 ft | 433 kts | 96° |
| 2026-05-04 17:33 | 27.97295 | -95.11252 | 18048 ft | 451 kts | 91° |
| 2026-05-04 17:33 | 27.97124 | -95.07761 | 18646 ft | 442 kts | 84° |
| 2026-05-04 17:34 | 27.98076 | -94.97633 | 18653 ft | 439 kts | 91° |
| 2026-05-04 17:34 | 27.97832 | -94.94469 | 19215 ft | 362 kts | 100° |
| 2026-05-04 17:35 | 27.96607 | -94.85044 | 18187 ft | 445 kts | 92° |
| 2026-05-04 17:35 | 27.96138 | -94.78349 | 18324 ft | 401 kts | 91° |
| 2026-05-04 17:35 | 27.95937 | -94.75333 | 18211 ft | 375 kts | 91° |
| 2026-05-04 17:36 | 27.95731 | -94.72412 | 18054 ft | 369 kts | 91° |
| 2026-05-04 17:36 | 27.95164 | -94.69661 | 17864 ft | 368 kts | 134° |
| 2026-05-04 17:36 | 27.92950 | -94.68329 | 17577 ft | 366 kts | 176° |
| 2026-05-04 17:36 | 27.90347 | -94.68358 | 17203 ft | 400 kts | 194° |
| 2026-05-04 17:37 | 27.87497 | -94.68941 | 17921 ft | 435 kts | 197° |
| 2026-05-04 17:37 | 27.84340 | -94.69168 | 18108 ft | 479 kts | 180° |
| 2026-05-04 17:37 | 27.80860 | -94.68761 | 17891 ft | 523 kts | 178° |
| 2026-05-04 17:37 | 27.77234 | -94.68385 | 18142 ft | 509 kts | 179° |
| 2026-05-04 17:38 | 27.73919 | -94.68042 | 18308 ft | 442 kts | 180° |
| 2026-05-04 17:38 | 27.70978 | -94.67995 | 18364 ft | 410 kts | 203° |
| 2026-05-04 17:38 | 27.69263 | -94.69981 | 18508 ft | 346 kts | 268° |
| 2026-05-04 17:38 | 27.68907 | -94.72674 | 18535 ft | 346 kts | 264° |
| 2026-05-04 17:39 | 27.67898 | -94.78027 | 18453 ft | 367 kts | 261° |
| 2026-05-04 17:39 | 27.67312 | -94.80922 | 18045 ft | 383 kts | 261° |
| 2026-05-04 17:39 | 27.66714 | -94.83819 | 17962 ft | 374 kts | 261° |
| 2026-05-04 17:40 | 27.66151 | -94.86607 | 18351 ft | 367 kts | 262° |
| 2026-05-04 17:40 | 27.65753 | -94.89429 | 18409 ft | 355 kts | 284° |
| 2026-05-04 17:40 | 27.67213 | -94.91520 | 18409 ft | 345 kts | 315° |
| 2026-05-04 17:40 | 27.69006 | -94.93345 | 18251 ft | 348 kts | 315° |
| 2026-05-04 17:41 | 27.70812 | -94.95166 | 18182 ft | 348 kts | 316° |
| 2026-05-04 17:41 | 27.72617 | -94.96977 | 18204 ft | 345 kts | 316° |
| 2026-05-04 17:41 | 27.74395 | -94.98797 | 18260 ft | 351 kts | 315° |
| 2026-05-04 17:41 | 27.76231 | -95.00701 | 18387 ft | 361 kts | 314° |
| 2026-05-04 17:42 | 27.78032 | -95.02632 | 18433 ft | 362 kts | 314° |
| 2026-05-04 17:42 | 27.79872 | -95.04598 | 18518 ft | 369 kts | 314° |
| 2026-05-04 17:42 | 27.81781 | -95.06673 | 18653 ft | 394 kts | 313° |
| 2026-05-04 17:42 | 27.83763 | -95.08870 | 19596 ft | 402 kts | 314° |
| 2026-05-04 17:43 | 27.85753 | -95.11155 | 20660 ft | 409 kts | 312° |
| 2026-05-04 17:43 | 27.87700 | -95.13511 | 21981 ft | 406 kts | 311° |
| 2026-05-04 17:43 | 27.89608 | -95.15855 | 22950 ft | 419 kts | 311° |
| 2026-05-04 17:43 | 27.91569 | -95.18452 | 23007 ft | 447 kts | 307° |
| 2026-05-04 17:44 | 27.93522 | -95.21325 | 23009 ft | 473 kts | 307° |
| 2026-05-04 17:44 | 27.95565 | -95.24379 | 22943 ft | 498 kts | 306° |
| 2026-05-04 17:44 | 27.97670 | -95.27596 | 23067 ft | 518 kts | 305° |
| 2026-05-04 17:44 | 27.99783 | -95.30938 | 23161 ft | 536 kts | 305° |
| 2026-05-04 17:45 | 28.01984 | -95.34447 | 22987 ft | 554 kts | 306° |
| 2026-05-04 17:45 | 28.04407 | -95.37807 | 23054 ft | 540 kts | 309° |
| 2026-05-04 17:45 | 28.06769 | -95.41008 | 23069 ft | 519 kts | 309° |
| 2026-05-04 17:45 | 28.09027 | -95.44091 | 23226 ft | 498 kts | 308° |
| 2026-05-04 17:46 | 28.10957 | -95.46759 | 22756 ft | 493 kts | 308° |
| 2026-05-04 17:46 | 28.13073 | -95.49676 | 23298 ft | 473 kts | 309° |
| 2026-05-04 17:46 | 28.15253 | -95.52377 | 23410 ft | 463 kts | 312° |
| 2026-05-04 17:46 | 28.17428 | -95.54956 | 23161 ft | 443 kts | 312° |
| 2026-05-04 17:47 | 28.19886 | -95.56869 | 23213 ft | 426 kts | 338° |
| 2026-05-04 17:47 | 28.22637 | -95.57973 | 22983 ft | 416 kts | 336° |
| 2026-05-04 17:47 | 28.25341 | -95.59055 | 23073 ft | 403 kts | 337° |
| 2026-05-04 17:47 | 28.28003 | -95.60014 | 23492 ft | 408 kts | 337° |
| 2026-05-04 17:48 | 28.30695 | -95.61022 | 24109 ft | 410 kts | 336° |
| 2026-05-04 17:48 | 28.33463 | -95.62118 | 23753 ft | 428 kts | 336° |
| 2026-05-04 17:48 | 28.36419 | -95.62819 | 23748 ft | 448 kts | 355° |
| 2026-05-04 17:48 | 28.39570 | -95.62646 | 23362 ft | 466 kts | 357° |
| 2026-05-04 17:49 | 28.42868 | -95.62468 | 22792 ft | 481 kts | 356° |
| 2026-05-04 17:49 | 28.46216 | -95.62422 | 22633 ft | 480 kts | 353° |
| 2026-05-04 17:49 | 28.49546 | -95.62532 | 22548 ft | 481 kts | 352° |
| 2026-05-04 17:49 | 28.52886 | -95.62943 | 22128 ft | 484 kts | 346° |
| 2026-05-04 17:50 | 28.56251 | -95.63572 | 21304 ft | 500 kts | 346° |
| 2026-05-04 17:50 | 28.59748 | -95.64274 | 20329 ft | 517 kts | 345° |
| 2026-05-04 17:50 | 28.63350 | -95.65021 | 19324 ft | 534 kts | 346° |
| 2026-05-04 17:50 | 28.67044 | -95.65804 | 18667 ft | 541 kts | 346° |
| 2026-05-04 17:51 | 28.70702 | -95.66598 | 18013 ft | 546 kts | 345° |
| 2026-05-04 17:51 | 28.74495 | -95.67471 | 16744 ft | 558 kts | 345° |
| 2026-05-04 17:51 | 28.78202 | -95.68315 | 16008 ft | 527 kts | 346° |
| 2026-05-04 17:51 | 28.81696 | -95.69118 | 15503 ft | 497 kts | 345° |
| 2026-05-04 17:52 | 28.85013 | -95.69891 | 14852 ft | 476 kts | 345° |
| 2026-05-04 17:52 | 28.88179 | -95.70624 | 14527 ft | 452 kts | 345° |
| 2026-05-04 17:52 | 28.91193 | -95.71313 | 14215 ft | 432 kts | 345° |
| 2026-05-04 17:52 | 28.94078 | -95.71982 | 13939 ft | 415 kts | 345° |
| 2026-05-04 17:53 | 28.96832 | -95.72659 | 13478 ft | 405 kts | 344° |
| 2026-05-04 17:53 | 28.98650 | -95.73123 | 13154 ft | 399 kts | 345° |
| 2026-05-04 17:53 | 29.02237 | -95.73908 | 12854 ft | 383 kts | 346° |
| 2026-05-04 17:53 | 29.04821 | -95.74420 | 12741 ft | 371 kts | 347° |
| 2026-05-04 17:54 | 29.07310 | -95.74897 | 12510 ft | 364 kts | 347° |
| 2026-05-04 17:54 | 29.09776 | -95.75381 | 12354 ft | 355 kts | 347° |
| 2026-05-04 17:54 | 29.12181 | -95.75828 | 12343 ft | 344 kts | 347° |
| 2026-05-04 17:54 | 29.14512 | -95.76229 | 12390 ft | 333 kts | 349° |
| 2026-05-04 17:55 | 29.16051 | -95.76460 | 12367 ft | 328 kts | 349° |
| 2026-05-04 17:55 | 29.18281 | -95.76794 | 12253 ft | 329 kts | 349° |
| 2026-05-04 17:55 | 29.20596 | -95.77146 | 12199 ft | 341 kts | 349° |
| 2026-05-04 17:55 | 29.22989 | -95.77515 | 12128 ft | 352 kts | 349° |
| 2026-05-04 17:56 | 29.25431 | -95.77904 | 12239 ft | 357 kts | 348° |
| 2026-05-04 17:56 | 29.27928 | -95.78300 | 12147 ft | 365 kts | 349° |
| 2026-05-04 17:56 | 29.30464 | -95.78684 | 12140 ft | 369 kts | 349° |
| 2026-05-04 17:56 | 29.33033 | -95.79054 | 12116 ft | 374 kts | 352° |
| 2026-05-04 17:57 | 29.35567 | -95.78562 | 12173 ft | 383 kts | 24° |
| 2026-05-04 17:57 | 29.37485 | -95.76422 | 12152 ft | 393 kts | 52° |
| 2026-05-04 17:57 | 29.39058 | -95.73829 | 12148 ft | 397 kts | 52° |
| 2026-05-04 17:57 | 29.40634 | -95.71210 | 12116 ft | 401 kts | 53° |
| 2026-05-04 17:58 | 29.42220 | -95.68556 | 12004 ft | 400 kts | 53° |
| 2026-05-04 17:58 | 29.43766 | -95.65952 | 11220 ft | 390 kts | 53° |
| 2026-05-04 17:58 | 29.45271 | -95.63429 | 10395 ft | 383 kts | 53° |
| 2026-05-04 17:58 | 29.46780 | -95.60933 | 9586 ft | 377 kts | 53° |
| 2026-05-04 17:59 | 29.48273 | -95.58484 | 8715 ft | 372 kts | 53° |
| 2026-05-04 17:59 | 29.49751 | -95.56069 | 7883 ft | 367 kts | 53° |
| 2026-05-04 17:59 | 29.52654 | -95.51333 | 6376 ft | 359 kts | 53° |
| 2026-05-04 18:00 | 29.54131 | -95.49068 | 6021 ft | 343 kts | 53° |
| 2026-05-04 18:00 | 29.55525 | -95.46967 | 5985 ft | 329 kts | 52° |
| 2026-05-04 18:00 | 29.56881 | -95.44924 | 5931 ft | 323 kts | 53° |
| 2026-05-04 18:00 | 29.58225 | -95.42877 | 6057 ft | 310 kts | 53° |
| 2026-05-04 18:01 | 29.59508 | -95.40894 | 6039 ft | 308 kts | 53° |
| 2026-05-04 18:01 | 29.60778 | -95.38923 | 6030 ft | 308 kts | 53° |
| 2026-05-04 18:01 | 29.62052 | -95.36948 | 6051 ft | 303 kts | 53° |
| 2026-05-04 18:02 | 29.64991 | -95.33542 | 5654 ft | 312 kts | 27° |
| 2026-05-04 18:02 | 29.67122 | -95.32769 | 4949 ft | 332 kts | 5° |
| 2026-05-04 18:02 | 29.69477 | -95.32861 | 4275 ft | 347 kts | 351° |
| 2026-05-04 18:02 | 29.71869 | -95.33258 | 4139 ft | 345 kts | 351° |
| 2026-05-04 18:03 | 29.74218 | -95.33315 | 4150 ft | 337 kts | 18° |
| 2026-05-04 18:03 | 29.75925 | -95.31639 | 3866 ft | 329 kts | 70° |
| 2026-05-04 18:03 | 29.75899 | -95.29132 | 3489 ft | 323 kts | 102° |
| 2026-05-04 18:03 | 29.75875 | -95.26511 | 3196 ft | 330 kts | 91° |
| 2026-05-04 18:04 | 29.75922 | -95.23845 | 2920 ft | 332 kts | 92° |
| 2026-05-04 18:04 | 29.75458 | -95.21352 | 2885 ft | 315 kts | 124° |
| 2026-05-04 18:04 | 29.72231 | -95.18124 | 2363 ft | 316 kts | 145° |
| 2026-05-04 18:05 | 29.70383 | -95.16744 | 2000 ft | 311 kts | 166° |
| 2026-05-04 18:05 | 29.68325 | -95.16550 | 1942 ft | 295 kts | 178° |
| 2026-05-04 18:05 | 29.66326 | -95.16503 | 1878 ft | 279 kts | 180° |
| 2026-05-04 18:05 | 29.64439 | -95.16491 | 1844 ft | 263 kts | 181° |
| 2026-05-04 18:06 | 29.60978 | -95.17166 | 1758 ft | 255 kts | 266° |
| 2026-05-04 18:06 | 29.62152 | -95.18185 | 1376 ft | 221 kts | 343° |
| 2026-05-04 18:06 | 29.63575 | -95.18534 | 1258 ft | 201 kts | 357° |
| 2026-05-04 18:07 | 29.64531 | -95.17723 | 787 ft | 178 kts | 95° |
| 2026-05-04 18:07 | 29.63955 | -95.16638 | 479 ft | 167 kts | 158° |
| 2026-05-04 18:07 | 29.62853 | -95.16475 | 185 ft | 149 kts | 179° |
| 2026-05-04 18:07 | 29.61870 | -95.16451 | 45 ft | 135 kts | 178° |
| 2026-05-04 18:08 | 29.61041 | -95.16424 | 39 ft | 106 kts | 178° |
| 2026-05-04 18:08 | 29.60388 | -95.16405 | 35 ft | 87 kts | 179° |
| 2026-05-04 18:08 | 29.59869 | -95.16397 | 38 ft | 55 kts | 179° |
| 2026-05-04 18:08 | 29.59646 | -95.16393 | 41 ft | 9 kts | 171° |
| 2026-05-04 18:09 | 29.59656 | -95.16481 | 40 ft | 17 kts | 224° |
| 2026-05-04 18:09 | 29.59668 | -95.16686 | 36 ft | 10 kts | 273° |
| 2026-05-04 18:10 | 29.59685 | -95.16704 | 36 ft | 0 kts | 2° |